createdAt,value
2018-05-31T00:00:08.776Z,71.71
2018-05-31T00:00:45.279Z,53.46
2018-05-31T00:01:20.598Z,68.15
2018-05-31T00:01:58.999Z,35.31
2018-05-31T00:02:34.282Z,61.54
2018-05-31T00:03:09.606Z,12.04
2018-05-31T00:03:44.921Z,345.00
2018-05-31T00:04:20.425Z,30.00
2018-05-31T00:05:02.247Z,59.36
2018-05-31T00:08:16.572Z,30.00
2018-05-31T00:08:51.983Z,30.00
2018-05-31T00:09:27.290Z,30.00
2018-05-31T00:10:06.871Z,30.00
2018-05-31T00:10:45.486Z,30.00
2018-05-31T00:11:20.577Z,30.00
2018-05-31T00:11:55.843Z,30.00
2018-05-31T00:12:31.139Z,30.00
2018-05-31T00:13:09.588Z,30.00
2018-05-31T00:13:48.682Z,30.00
2018-05-31T00:14:23.872Z,30.00
2018-05-31T00:14:59.198Z,30.00
2018-05-31T00:15:34.460Z,30.00
2018-05-31T00:16:09.654Z,30.00
2018-05-31T00:16:45.016Z,30.00
2018-05-31T00:17:20.561Z,30.00
2018-05-31T00:17:59.050Z,40.58
2018-05-31T00:18:37.586Z,197.66
2018-05-31T00:19:16.210Z,201.88
2018-05-31T00:19:51.483Z,203.38
2018-05-31T00:23:07.284Z,202.38
2018-05-31T00:23:42.525Z,201.88
2018-05-31T00:24:18.095Z,202.63
2018-05-31T00:24:53.380Z,201.98
2018-05-31T00:25:28.472Z,186.73
2018-05-31T00:26:03.796Z,183.72
2018-05-31T00:26:39.122Z,180.64
2018-05-31T00:27:14.522Z,171.80
2018-05-31T00:27:53.081Z,182.16
2018-05-31T00:28:28.177Z,186.71
2018-05-31T00:29:05.495Z,168.88
2018-05-31T00:29:40.768Z,182.16
2018-05-31T00:30:15.774Z,200.12
2018-05-31T00:33:30.235Z,202.47
2018-05-31T00:34:06.865Z,202.54
2018-05-31T00:34:42.760Z,201.88
2018-05-31T00:35:21.384Z,202.54
2018-05-31T00:38:36.937Z,181.20
2018-05-31T00:39:12.336Z,180.65
2018-05-31T00:39:48.035Z,182.18
2018-05-31T00:40:23.424Z,182.16
2018-05-31T00:40:59.825Z,183.68
2018-05-31T00:43:39.771Z,185.94
2018-05-31T00:44:15.093Z,182.19
2018-05-31T00:44:51.869Z,183.64
2018-05-31T00:45:27.150Z,183.69
2018-05-31T00:46:04.461Z,255.00
2018-05-31T00:46:40.050Z,253.61
2018-05-31T00:47:15.351Z,219.86
2018-05-31T00:47:50.633Z,248.61
2018-05-31T00:48:28.463Z,255.00
2018-05-31T00:49:03.802Z,235.74
2018-05-31T00:49:39.291Z,199.21
2018-05-31T00:50:14.455Z,202.63
2018-05-31T00:50:53.104Z,127.67
2018-05-31T00:51:28.479Z,212.75
2018-05-31T00:52:03.659Z,203.28
2018-05-31T00:52:39.485Z,202.63
2018-05-31T00:53:14.902Z,192.35
2018-05-31T00:53:50.317Z,75.00
2018-05-31T00:54:28.990Z,75.00
2018-05-31T00:55:04.476Z,75.00
2018-05-31T00:55:40.261Z,75.00
2018-05-31T00:56:18.873Z,75.00
2018-05-31T00:56:57.071Z,75.00
2018-05-31T00:57:32.738Z,215.94
2018-05-31T00:58:08.075Z,202.56
2018-05-31T00:58:43.591Z,202.63
2018-05-31T00:59:21.867Z,114.04
2018-05-31T01:00:00.994Z,208.34
2018-05-31T01:00:39.407Z,202.72
2018-05-31T01:01:14.927Z,203.38
2018-05-31T01:01:54.015Z,202.54
2018-05-31T01:02:29.227Z,202.63
2018-05-31T01:03:07.636Z,201.88
2018-05-31T01:03:43.280Z,202.54
2018-05-31T01:04:21.762Z,202.63
2018-05-31T01:05:00.909Z,210.00
2018-05-31T01:05:36.179Z,202.63
2018-05-31T01:06:11.531Z,203.28
2018-05-31T01:06:48.334Z,202.63
2018-05-31T01:07:23.642Z,203.38
2018-05-31T01:07:58.908Z,202.54
2018-05-31T01:08:37.675Z,202.63
2018-05-31T01:09:13.379Z,202.54
2018-05-31T01:09:52.375Z,59.56
2018-05-31T01:10:27.786Z,27.79
2018-05-31T01:11:03.970Z,202.72
2018-05-31T01:11:42.698Z,203.28
2018-05-31T01:12:18.122Z,203.93
2018-05-31T01:12:53.415Z,208.77
2018-05-31T01:13:28.851Z,203.93
2018-05-31T01:14:08.212Z,202.72
2018-05-31T01:14:43.636Z,202.72
2018-05-31T01:15:25.233Z,210.00
2018-05-31T01:16:00.561Z,202.63
2018-05-31T01:16:36.190Z,208.66
2018-05-31T01:17:11.694Z,202.63
2018-05-31T01:17:46.822Z,203.19
2018-05-31T01:18:22.246Z,327.26
2018-05-31T01:18:57.653Z,344.82
2018-05-31T01:19:32.905Z,345.00
2018-05-31T01:20:08.211Z,344.82
2018-05-31T01:20:45.688Z,345.00
2018-05-31T01:21:20.795Z,345.00
2018-05-31T01:21:56.161Z,352.06
2018-05-31T01:22:35.183Z,182.16
2018-05-31T01:23:10.617Z,182.15
2018-05-31T01:23:46.018Z,185.24
2018-05-31T01:24:21.427Z,188.18
2018-05-31T01:24:56.826Z,188.24
2018-05-31T01:25:32.325Z,183.67
2018-05-31T01:26:10.688Z,180.65
2018-05-31T01:26:46.011Z,180.65
2018-05-31T01:27:21.408Z,180.65
2018-05-31T01:27:56.519Z,188.29
2018-05-31T01:28:31.945Z,183.67
2018-05-31T01:29:07.273Z,186.71
2018-05-31T01:29:42.402Z,182.17
2018-05-31T01:30:21.600Z,186.69
2018-05-31T01:30:56.836Z,105.85
2018-05-31T01:31:35.521Z,57.14
2018-05-31T01:32:13.923Z,39.70
2018-05-31T01:32:52.618Z,30.00
2018-05-31T01:33:28.231Z,32.05
2018-05-31T01:34:03.954Z,126.86
2018-05-31T01:34:39.580Z,173.74
2018-05-31T01:35:18.194Z,61.16
2018-05-31T01:35:53.599Z,30.00
2018-05-31T01:36:32.094Z,4.93
2018-05-31T01:37:07.267Z,255.00
2018-05-31T01:37:42.575Z,255.14
2018-05-31T01:38:17.876Z,52.07
2018-05-31T01:38:53.105Z,122.87
2018-05-31T01:39:29.265Z,127.67
2018-05-31T01:42:06.001Z,43.82
2018-05-31T01:42:41.141Z,96.96
2018-05-31T01:43:16.323Z,89.04
2018-05-31T01:43:51.856Z,110.22
2018-05-31T01:44:26.966Z,127.22
2018-05-31T01:45:02.058Z,128.12
2018-05-31T01:45:37.530Z,127.98
2018-05-31T01:46:12.565Z,202.64
2018-05-31T01:46:49.780Z,201.97
2018-05-31T01:47:25.082Z,204.03
2018-05-31T01:48:00.365Z,203.38
2018-05-31T01:48:35.626Z,238.98
2018-05-31T01:49:11.636Z,203.38
2018-05-31T01:49:48.851Z,211.58
2018-05-31T01:50:24.280Z,236.94
2018-05-31T01:50:59.758Z,82.45
2018-05-31T01:51:35.167Z,127.37
2018-05-31T01:52:10.631Z,97.67
2018-05-31T01:52:45.941Z,206.11
2018-05-31T01:53:21.435Z,71.28
2018-05-31T01:53:57.243Z,231.60
2018-05-31T01:54:32.422Z,2.02
2018-05-31T01:55:08.115Z,160.73
2018-05-31T01:55:43.649Z,235.92
2018-05-31T01:56:19.128Z,201.16
2018-05-31T01:56:54.322Z,203.47
2018-05-31T01:57:29.744Z,202.72
2018-05-31T01:58:05.025Z,202.63
2018-05-31T01:58:40.446Z,203.28
2018-05-31T01:59:15.688Z,216.91
2018-05-31T01:59:51.170Z,300.00
2018-05-31T02:00:26.405Z,300.00
2018-05-31T02:01:03.222Z,300.00
2018-05-31T02:01:38.634Z,216.74
2018-05-31T02:02:13.835Z,202.54
2018-05-31T02:02:49.141Z,202.63
2018-05-31T02:03:24.464Z,201.22
2018-05-31T02:03:59.787Z,224.38
2018-05-31T02:04:35.183Z,255.00
2018-05-31T02:05:10.253Z,255.00
2018-05-31T02:05:45.652Z,255.00
2018-05-31T02:06:21.146Z,255.00
2018-05-31T02:06:56.456Z,228.27
2018-05-31T02:07:31.832Z,203.28
2018-05-31T02:08:07.064Z,202.63
2018-05-31T02:08:42.389Z,201.30
2018-05-31T02:09:17.587Z,210.00
2018-05-31T02:09:53.104Z,202.72
2018-05-31T02:10:28.497Z,210.00
2018-05-31T02:11:03.979Z,204.03
2018-05-31T02:11:39.554Z,203.28
2018-05-31T02:12:14.749Z,202.54
2018-05-31T02:12:50.058Z,202.63
2018-05-31T02:13:25.368Z,213.16
2018-05-31T02:14:00.750Z,186.44
2018-05-31T02:14:35.879Z,242.88
2018-05-31T02:15:10.898Z,205.42
2018-05-31T02:15:48.384Z,213.69
2018-05-31T02:16:23.684Z,205.84
2018-05-31T02:16:58.871Z,202.72
2018-05-31T02:17:34.475Z,202.63
2018-05-31T02:18:10.081Z,288.42
2018-05-31T02:18:45.585Z,203.28
2018-05-31T02:19:20.943Z,204.72
2018-05-31T02:19:56.355Z,193.04
2018-05-31T02:20:31.900Z,157.20
2018-05-31T02:21:06.974Z,230.19
2018-05-31T02:21:42.292Z,30.00
2018-05-31T02:22:17.550Z,84.64
2018-05-31T02:22:52.951Z,76.82
2018-05-31T02:23:28.237Z,53.52
2018-05-31T02:24:03.460Z,66.31
2018-05-31T02:24:38.790Z,82.59
2018-05-31T02:25:13.997Z,104.39
2018-05-31T02:25:49.665Z,74.31
2018-05-31T02:26:25.199Z,78.37
2018-05-31T02:27:01.634Z,64.95
2018-05-31T02:27:37.234Z,317.15
2018-05-31T02:28:12.526Z,80.10
2018-05-31T02:28:47.913Z,49.34
2018-05-31T02:29:23.836Z,74.25
2018-05-31T02:29:59.272Z,156.63
2018-05-31T02:30:34.573Z,258.54
2018-05-31T02:31:09.947Z,242.62
2018-05-31T02:31:45.558Z,108.80
2018-05-31T02:32:20.985Z,186.00
2018-05-31T02:32:56.277Z,51.15
2018-05-31T02:33:32.066Z,114.08
2018-05-31T02:34:07.536Z,67.44
2018-05-31T02:34:43.971Z,66.01
2018-05-31T02:35:19.648Z,79.33
2018-05-31T02:35:55.273Z,40.40
2018-05-31T02:36:30.525Z,81.14
2018-05-31T02:37:06.038Z,56.16
2018-05-31T02:37:41.120Z,42.50
2018-05-31T02:38:16.330Z,72.34
2018-05-31T02:38:51.825Z,24.51
2018-05-31T02:39:27.369Z,127.81
2018-05-31T02:40:03.072Z,169.36
2018-05-31T02:40:38.459Z,235.72
2018-05-31T02:41:13.685Z,255.00
2018-05-31T02:41:49.175Z,264.23
2018-05-31T02:42:24.563Z,49.38
2018-05-31T02:43:00.277Z,65.51
2018-05-31T02:43:35.483Z,71.56
2018-05-31T02:44:10.893Z,75.79
2018-05-31T02:44:48.594Z,77.32
2018-05-31T02:45:24.301Z,85.28
2018-05-31T02:45:59.795Z,45.53
2018-05-31T02:46:35.013Z,83.18
2018-05-31T02:47:10.091Z,235.97
2018-05-31T02:47:45.408Z,255.00
2018-05-31T02:48:20.796Z,255.00
2018-05-31T02:48:56.078Z,94.22
2018-05-31T02:49:31.310Z,74.83
2018-05-31T02:50:08.808Z,48.90
2018-05-31T02:50:44.110Z,74.31
2018-05-31T02:51:19.514Z,75.00
2018-05-31T02:51:54.927Z,85.84
2018-05-31T02:52:30.428Z,121.70
2018-05-31T02:53:05.660Z,345.00
2018-05-31T02:53:40.732Z,30.89
2018-05-31T02:54:16.046Z,69.58
2018-05-31T02:54:51.541Z,74.31
2018-05-31T02:55:27.053Z,70.91
2018-05-31T02:56:02.511Z,75.00
2018-05-31T02:56:38.120Z,38.07
2018-05-31T02:57:13.224Z,37.59
2018-05-31T02:57:48.631Z,209.45
2018-05-31T02:58:24.095Z,233.54
2018-05-31T02:58:59.387Z,118.40
2018-05-31T02:59:34.725Z,40.80
2018-05-31T03:00:09.946Z,71.82
2018-05-31T03:00:45.365Z,75.00
2018-05-31T03:01:20.569Z,75.00
2018-05-31T03:01:55.969Z,130.42
2018-05-31T03:02:31.362Z,50.91
2018-05-31T03:03:06.432Z,65.30
2018-05-31T03:03:41.819Z,75.00
2018-05-31T03:04:17.107Z,75.00
2018-05-31T03:04:52.650Z,75.00
2018-05-31T03:05:28.351Z,75.00
2018-05-31T03:06:03.871Z,75.00
2018-05-31T03:06:39.241Z,75.00
2018-05-31T03:07:14.435Z,75.00
2018-05-31T03:07:49.665Z,80.13
2018-05-31T03:08:24.942Z,30.00
2018-05-31T03:09:00.142Z,30.00
2018-05-31T03:09:35.316Z,30.00
2018-05-31T03:10:10.645Z,30.00
2018-05-31T03:10:46.214Z,66.74
2018-05-31T03:11:21.828Z,36.83
2018-05-31T03:11:57.112Z,30.00
2018-05-31T03:12:32.540Z,31.45
2018-05-31T03:13:07.723Z,70.32
2018-05-31T03:13:42.778Z,34.03
2018-05-31T03:14:18.161Z,30.00
2018-05-31T03:14:53.573Z,36.83
2018-05-31T03:15:29.095Z,64.55
2018-05-31T03:16:04.483Z,75.00
2018-05-31T03:16:39.819Z,75.00
2018-05-31T03:17:15.127Z,75.00
2018-05-31T03:17:50.346Z,75.00
2018-05-31T03:18:26.049Z,75.00
2018-05-31T03:19:01.388Z,75.00
2018-05-31T03:19:36.662Z,75.00
2018-05-31T03:20:11.990Z,75.00
2018-05-31T03:20:48.576Z,54.80
2018-05-31T03:21:23.880Z,30.00
2018-05-31T03:21:59.095Z,30.00
2018-05-31T03:22:34.480Z,302.62
2018-05-31T03:23:09.976Z,300.00
2018-05-31T03:23:45.237Z,300.00
2018-05-31T03:24:20.533Z,300.00
2018-05-31T03:24:55.772Z,300.00
2018-05-31T03:25:30.918Z,300.00
2018-05-31T03:26:05.993Z,300.00
2018-05-31T03:26:41.406Z,300.00
2018-05-31T03:27:16.921Z,300.00
2018-05-31T03:27:52.242Z,300.00
2018-05-31T03:28:27.332Z,300.00
2018-05-31T03:29:02.460Z,300.00
2018-05-31T03:29:37.705Z,300.00
2018-05-31T03:30:12.944Z,300.00
2018-05-31T03:30:50.370Z,300.00
2018-05-31T03:31:25.445Z,300.00
2018-05-31T03:32:00.959Z,324.05
2018-05-31T03:32:39.276Z,126.92
2018-05-31T03:33:14.970Z,127.67
2018-05-31T03:33:50.376Z,92.65
2018-05-31T03:34:25.754Z,30.00
2018-05-31T03:35:01.300Z,30.00
2018-05-31T03:35:36.388Z,194.45
2018-05-31T03:36:11.912Z,103.29
2018-05-31T03:36:48.323Z,127.22
2018-05-31T03:37:23.518Z,201.93
2018-05-31T03:37:58.690Z,201.88
2018-05-31T03:38:34.219Z,202.63
2018-05-31T03:39:09.319Z,210.00
2018-05-31T03:39:44.384Z,196.66
2018-05-31T03:40:19.537Z,75.00
2018-05-31T03:40:56.533Z,131.28
2018-05-31T03:41:31.658Z,128.56
2018-05-31T03:42:06.795Z,127.67
2018-05-31T03:42:41.919Z,127.81
2018-05-31T03:43:17.297Z,128.25
2018-05-31T03:43:52.684Z,357.61
2018-05-31T03:44:27.952Z,48.25
2018-05-31T03:45:03.392Z,53.33
2018-05-31T03:45:39.179Z,75.00
2018-05-31T03:46:14.357Z,75.00
2018-05-31T03:46:49.578Z,17.14
2018-05-31T03:47:25.053Z,88.78
2018-05-31T03:48:00.459Z,200.66
2018-05-31T03:48:35.753Z,198.58
2018-05-31T03:49:11.181Z,130.10
2018-05-31T03:49:46.652Z,127.37
2018-05-31T03:50:21.885Z,192.77
2018-05-31T03:50:57.267Z,203.28
2018-05-31T03:51:32.805Z,202.72
2018-05-31T03:52:08.413Z,201.97
2018-05-31T03:52:43.675Z,202.63
2018-05-31T03:53:19.490Z,202.63
2018-05-31T03:53:54.757Z,202.72
2018-05-31T03:54:30.162Z,201.97
2018-05-31T03:55:05.467Z,203.28
2018-05-31T03:55:40.804Z,216.92
2018-05-31T03:56:16.172Z,40.33
2018-05-31T03:56:51.866Z,176.18
2018-05-31T03:57:27.059Z,192.76
2018-05-31T03:58:02.384Z,153.35
2018-05-31T03:58:38.001Z,126.48
2018-05-31T03:59:13.288Z,141.64
2018-05-31T03:59:48.599Z,218.52
2018-05-31T04:00:24.007Z,255.00
2018-05-31T04:00:59.332Z,255.00
2018-05-31T04:01:34.843Z,215.96
2018-05-31T04:02:10.331Z,182.16
2018-05-31T04:02:45.550Z,185.19
2018-05-31T04:03:20.736Z,183.68
2018-05-31T04:03:56.154Z,183.69
2018-05-31T04:04:31.543Z,148.47
2018-05-31T04:05:06.562Z,253.68
2018-05-31T04:05:41.977Z,255.00
2018-05-31T04:06:17.687Z,255.00
2018-05-31T04:06:52.775Z,245.69
2018-05-31T04:07:27.979Z,201.97
2018-05-31T04:08:03.567Z,204.74
2018-05-31T04:08:38.774Z,283.02
2018-05-31T04:09:13.784Z,211.61
2018-05-31T04:09:48.992Z,180.65
2018-05-31T04:10:24.307Z,125.24
2018-05-31T04:10:59.610Z,75.00
2018-05-31T04:11:34.836Z,75.00
2018-05-31T04:12:10.055Z,75.00
2018-05-31T04:12:45.444Z,157.26
2018-05-31T04:13:20.761Z,179.48
2018-05-31T04:13:56.097Z,49.96
2018-05-31T04:14:31.706Z,345.00
2018-05-31T04:15:07.125Z,71.93
2018-05-31T04:15:42.937Z,127.37
2018-05-31T04:16:18.228Z,127.67
2018-05-31T04:16:53.848Z,64.71
2018-05-31T04:17:29.217Z,345.00
2018-05-31T04:18:04.537Z,12.49
2018-05-31T04:18:39.742Z,127.67
2018-05-31T04:19:15.072Z,141.22
2018-05-31T04:19:50.347Z,195.79
2018-05-31T04:20:32.385Z,30.00
2018-05-31T04:21:07.664Z,28.68
2018-05-31T04:21:43.201Z,196.87
2018-05-31T04:22:18.310Z,155.48
2018-05-31T04:22:53.495Z,204.92
2018-05-31T04:23:28.919Z,221.19
2018-05-31T04:24:04.415Z,188.59
2018-05-31T04:24:39.818Z,260.42
2018-05-31T04:25:15.008Z,201.89
2018-05-31T04:25:50.255Z,187.53
2018-05-31T04:26:25.633Z,87.13
2018-05-31T04:27:01.075Z,75.00
2018-05-31T04:27:36.811Z,75.00
2018-05-31T04:28:12.014Z,75.00
2018-05-31T04:28:47.335Z,75.00
2018-05-31T04:29:23.027Z,75.00
2018-05-31T04:29:58.232Z,75.00
2018-05-31T04:30:33.417Z,75.00
2018-05-31T04:31:08.671Z,185.19
2018-05-31T04:31:45.156Z,171.77
2018-05-31T04:32:20.764Z,185.17
2018-05-31T04:32:56.181Z,185.22
2018-05-31T04:33:31.368Z,231.95
2018-05-31T04:34:06.802Z,255.00
2018-05-31T04:34:41.893Z,255.00
2018-05-31T04:35:17.524Z,255.00
2018-05-31T04:35:53.155Z,204.09
2018-05-31T04:36:28.417Z,201.91
2018-05-31T04:37:03.811Z,202.72
2018-05-31T04:37:38.966Z,201.97
2018-05-31T04:38:14.271Z,202.81
2018-05-31T04:38:49.584Z,209.88
2018-05-31T04:39:26.084Z,198.40
2018-05-31T04:40:01.732Z,190.52
2018-05-31T04:40:38.724Z,185.19
2018-05-31T04:41:14.135Z,188.24
2018-05-31T04:41:49.344Z,183.20
2018-05-31T04:42:24.762Z,129.69
2018-05-31T04:42:59.967Z,127.37
2018-05-31T04:43:35.135Z,187.03
2018-05-31T04:44:10.446Z,202.63
2018-05-31T04:44:46.843Z,202.72
2018-05-31T04:45:22.376Z,202.72
2018-05-31T04:45:57.803Z,203.47
2018-05-31T04:46:33.301Z,204.57
2018-05-31T04:47:08.825Z,201.97
2018-05-31T04:47:44.410Z,202.54
2018-05-31T04:48:19.540Z,201.33
2018-05-31T04:48:54.839Z,229.86
2018-05-31T04:49:30.335Z,193.33
2018-05-31T04:50:05.543Z,255.00
2018-05-31T04:50:41.041Z,255.00
2018-05-31T04:51:16.257Z,255.00
2018-05-31T04:51:51.569Z,255.00
2018-05-31T04:52:26.800Z,255.00
2018-05-31T04:53:02.199Z,196.01
2018-05-31T04:53:37.762Z,174.62
2018-05-31T04:54:12.943Z,135.91
2018-05-31T04:54:48.561Z,187.24
2018-05-31T04:55:23.964Z,202.72
2018-05-31T04:55:59.320Z,181.98
2018-05-31T04:56:34.523Z,128.12
2018-05-31T04:57:09.856Z,127.81
2018-05-31T04:57:45.107Z,113.73
2018-05-31T04:58:20.674Z,93.08
2018-05-31T04:58:56.190Z,183.68
2018-05-31T04:59:31.298Z,179.13
2018-05-31T05:00:06.701Z,195.18
2018-05-31T05:00:45.298Z,81.26
2018-05-31T05:01:20.710Z,30.00
2018-05-31T05:01:56.124Z,87.73
2018-05-31T05:02:31.522Z,75.00
2018-05-31T05:03:07.029Z,75.00
2018-05-31T05:03:42.465Z,123.43
2018-05-31T05:04:17.957Z,180.64
2018-05-31T05:04:53.232Z,215.37
2018-05-31T05:05:28.641Z,338.40
2018-05-31T05:06:04.161Z,75.00
2018-05-31T05:06:39.590Z,91.75
2018-05-31T05:07:14.879Z,127.37
2018-05-31T05:07:50.285Z,86.71
2018-05-31T05:08:25.764Z,33.42
2018-05-31T05:09:01.273Z,79.40
2018-05-31T05:09:36.757Z,156.28
2018-05-31T05:10:12.189Z,57.09
2018-05-31T05:10:48.605Z,57.84
2018-05-31T05:11:24.068Z,75.00
2018-05-31T05:11:59.394Z,75.00
2018-05-31T05:12:34.665Z,45.29
2018-05-31T05:13:09.860Z,66.28
2018-05-31T05:13:45.338Z,91.13
2018-05-31T05:14:20.663Z,202.63
2018-05-31T05:14:55.941Z,84.87
2018-05-31T05:15:31.050Z,66.74
2018-05-31T05:16:08.379Z,54.02
2018-05-31T05:16:44.021Z,65.93
2018-05-31T05:17:19.234Z,72.98
2018-05-31T05:17:54.710Z,20.26
2018-05-31T05:18:30.212Z,56.34
2018-05-31T05:19:05.397Z,64.96
2018-05-31T05:19:40.708Z,62.92
2018-05-31T05:20:15.902Z,56.32
2018-05-31T05:20:51.384Z,57.01
2018-05-31T05:21:26.605Z,66.57
2018-05-31T05:22:02.185Z,85.24
2018-05-31T05:22:37.533Z,82.10
2018-05-31T05:23:13.150Z,20.75
2018-05-31T05:23:48.365Z,150.01
2018-05-31T05:24:23.856Z,70.68
2018-05-31T05:24:59.265Z,79.88
2018-05-31T05:25:34.894Z,86.05
2018-05-31T05:26:10.005Z,146.57
2018-05-31T05:26:45.919Z,204.92
2018-05-31T05:27:22.533Z,63.45
2018-05-31T05:27:57.758Z,54.56
2018-05-31T05:28:32.933Z,85.01
2018-05-31T05:29:08.266Z,217.31
2018-05-31T05:29:43.465Z,45.39
2018-05-31T05:30:18.479Z,148.66
2018-05-31T05:30:53.856Z,77.03
2018-05-31T05:31:29.091Z,72.81
2018-05-31T05:32:04.173Z,67.16
2018-05-31T05:32:42.726Z,70.09
2018-05-31T05:33:20.036Z,64.70
2018-05-31T05:33:55.454Z,54.07
2018-05-31T05:34:30.856Z,47.11
2018-05-31T05:35:06.344Z,75.00
2018-05-31T05:35:42.854Z,134.34
2018-05-31T05:36:18.131Z,70.97
2018-05-31T05:36:53.571Z,77.07
2018-05-31T05:37:28.792Z,173.66
2018-05-31T05:38:04.124Z,70.73
2018-05-31T05:38:39.537Z,14.81
2018-05-31T05:39:14.736Z,199.42
2018-05-31T05:39:50.312Z,74.40
2018-05-31T05:40:25.673Z,42.80
2018-05-31T05:41:01.104Z,88.15
2018-05-31T05:41:36.638Z,86.30
2018-05-31T05:42:12.076Z,100.54
2018-05-31T05:42:47.376Z,62.44
2018-05-31T05:43:22.601Z,55.03
2018-05-31T05:43:58.110Z,56.43
2018-05-31T05:44:33.423Z,54.65
2018-05-31T05:45:08.843Z,59.22
2018-05-31T05:45:46.126Z,68.03
2018-05-31T05:46:21.741Z,67.98
2018-05-31T05:46:56.985Z,64.56
2018-05-31T05:47:32.287Z,66.01
2018-05-31T05:48:07.559Z,65.30
2018-05-31T05:48:42.881Z,93.63
2018-05-31T05:49:18.093Z,66.44
2018-05-31T05:49:53.304Z,58.60
2018-05-31T05:50:29.401Z,73.30
2018-05-31T05:51:04.924Z,356.50
2018-05-31T05:51:41.399Z,226.21
2018-05-31T05:52:16.685Z,62.08
2018-05-31T05:52:52.198Z,62.35
2018-05-31T05:53:27.512Z,54.30
2018-05-31T05:54:02.839Z,74.98
2018-05-31T05:54:38.535Z,65.30
2018-05-31T05:55:13.759Z,51.86
2018-05-31T05:55:49.049Z,50.67
2018-05-31T05:56:24.567Z,58.16
2018-05-31T05:56:59.893Z,108.95
2018-05-31T05:57:35.125Z,48.69
2018-05-31T05:58:10.893Z,81.26
2018-05-31T05:58:47.009Z,94.61
2018-05-31T05:59:22.568Z,185.73
2018-05-31T05:59:57.754Z,146.98
2018-05-31T06:00:33.782Z,105.88
2018-05-31T06:01:09.093Z,72.25
2018-05-31T06:01:44.548Z,329.27
2018-05-31T06:02:19.678Z,54.10
2018-05-31T06:02:55.289Z,85.41
2018-05-31T06:03:30.721Z,57.81
2018-05-31T06:04:07.523Z,60.88
2018-05-31T06:04:46.746Z,52.95
2018-05-31T06:05:22.092Z,75.00
2018-05-31T06:05:57.612Z,206.71
2018-05-31T06:06:37.193Z,37.51
2018-05-31T06:07:12.555Z,36.08
2018-05-31T06:07:47.747Z,40.58
2018-05-31T06:08:23.468Z,46.54
2018-05-31T06:08:58.921Z,58.71
2018-05-31T06:09:34.241Z,72.63
2018-05-31T06:10:09.522Z,48.57
2018-05-31T06:10:48.886Z,64.97
2018-05-31T06:11:24.423Z,49.05
2018-05-31T06:11:59.725Z,66.44
2018-05-31T06:12:35.245Z,60.01
2018-05-31T06:13:10.647Z,76.89
2018-05-31T06:13:46.449Z,57.27
2018-05-31T06:14:21.875Z,62.97
2018-05-31T06:14:57.385Z,62.35
2018-05-31T06:15:32.837Z,52.52
2018-05-31T06:16:08.210Z,53.18
2018-05-31T06:16:43.738Z,46.56
2018-05-31T06:17:19.209Z,45.89
2018-05-31T06:17:54.549Z,73.12
2018-05-31T06:18:30.142Z,58.44
2018-05-31T06:19:05.213Z,100.68
2018-05-31T06:19:40.486Z,49.54
2018-05-31T06:20:15.848Z,62.62
2018-05-31T06:20:51.371Z,50.44
2018-05-31T06:21:26.779Z,53.69
2018-05-31T06:22:01.945Z,79.32
2018-05-31T06:22:37.383Z,223.50
2018-05-31T06:23:12.425Z,80.74
2018-05-31T06:23:47.759Z,78.05
2018-05-31T06:24:22.961Z,90.43
2018-05-31T06:24:58.108Z,103.61
2018-05-31T06:25:33.543Z,91.43
2018-05-31T06:26:09.930Z,62.35
2018-05-31T06:26:45.210Z,58.73
2018-05-31T06:27:20.678Z,76.35
2018-05-31T06:27:55.959Z,40.64
2018-05-31T06:28:31.084Z,76.76
2018-05-31T06:29:06.283Z,47.63
2018-05-31T06:29:41.814Z,79.15
2018-05-31T06:30:17.131Z,106.83
2018-05-31T06:30:54.661Z,168.54
2018-05-31T06:31:30.013Z,105.29
2018-05-31T06:32:05.213Z,205.25
2018-05-31T06:32:40.547Z,203.59
2018-05-31T06:33:16.148Z,240.22
2018-05-31T06:33:51.490Z,214.22
2018-05-31T06:34:26.692Z,274.19
2018-05-31T06:35:01.908Z,213.02
2018-05-31T06:35:37.209Z,239.26
2018-05-31T06:36:12.860Z,270.54
2018-05-31T06:36:48.452Z,154.84
2018-05-31T06:37:26.954Z,128.36
2018-05-31T06:38:02.235Z,82.50
2018-05-31T06:38:37.737Z,65.19
2018-05-31T06:39:13.395Z,45.14
2018-05-31T06:39:48.611Z,236.64
2018-05-31T06:40:24.348Z,238.95
2018-05-31T06:41:00.439Z,199.94
2018-05-31T06:41:35.995Z,186.83
2018-05-31T06:42:11.322Z,327.03
2018-05-31T06:42:46.791Z,318.00
2018-05-31T06:43:22.231Z,67.47
2018-05-31T06:43:57.835Z,70.06
2018-05-31T06:44:33.467Z,72.46
2018-05-31T06:45:08.654Z,72.97
2018-05-31T06:45:43.968Z,57.93
2018-05-31T06:46:20.497Z,64.33
2018-05-31T06:46:55.903Z,87.41
2018-05-31T06:47:31.434Z,59.80
2018-05-31T06:48:06.843Z,201.65
2018-05-31T06:48:43.884Z,96.31
2018-05-31T06:49:19.404Z,78.93
2018-05-31T06:49:54.856Z,72.35
2018-05-31T06:50:30.186Z,78.93
2018-05-31T06:51:05.399Z,93.98
2018-05-31T06:51:40.602Z,92.83
2018-05-31T06:52:16.112Z,72.58
2018-05-31T06:52:52.534Z,64.55
2018-05-31T06:53:28.067Z,75.54
2018-05-31T06:54:03.175Z,54.09
2018-05-31T06:54:38.618Z,193.71
2018-05-31T06:55:13.993Z,277.03
2018-05-31T06:55:49.226Z,92.86
2018-05-31T06:56:24.676Z,77.31
2018-05-31T06:56:59.963Z,11.38
2018-05-31T06:57:35.912Z,72.08
2018-05-31T06:58:11.508Z,258.04
2018-05-31T06:58:46.849Z,37.66
2018-05-31T06:59:22.276Z,48.10
2018-05-31T06:59:57.579Z,119.60
2018-05-31T07:00:32.789Z,142.86
2018-05-31T07:01:08.214Z,106.86
2018-05-31T07:01:43.947Z,58.79
2018-05-31T07:02:19.260Z,63.71
2018-05-31T07:02:54.830Z,67.83
2018-05-31T07:03:30.345Z,36.89
2018-05-31T07:04:05.790Z,57.09
2018-05-31T07:04:40.977Z,66.57
2018-05-31T07:05:16.729Z,104.15
